createdAt,value
2023-02-06T00:00:55.897Z,12.30
2023-02-06T00:03:23.682Z,12.40
2023-02-06T00:05:59.075Z,12.90
2023-02-06T00:08:27.476Z,13.50
2023-02-06T00:10:55.518Z,12.70
2023-02-06T00:13:30.955Z,14.10
2023-02-06T00:16:20.144Z,12.70
2023-02-06T00:18:48.333Z,15.70
2023-02-06T00:21:21.384Z,12.40
2023-02-06T00:23:49.282Z,13.20
2023-02-06T00:26:17.463Z,14.30
2023-02-06T00:28:45.737Z,12.90
2023-02-06T00:31:15.226Z,15.80
2023-02-06T00:33:43.407Z,12.00
2023-02-06T00:36:11.387Z,12.00
2023-02-06T00:38:39.392Z,12.60
2023-02-06T00:41:07.550Z,12.90
2023-02-06T00:43:35.691Z,11.90
2023-02-06T00:46:03.709Z,12.60
2023-02-06T00:48:31.651Z,11.40
2023-02-06T00:50:59.902Z,12.70
2023-02-06T00:53:28.091Z,13.20
2023-02-06T00:55:56.155Z,12.70
2023-02-06T00:58:24.446Z,12.20
2023-02-06T01:00:52.671Z,12.60
2023-02-06T01:03:20.949Z,13.10
2023-02-06T01:05:48.916Z,14.10
2023-02-06T01:08:16.954Z,18.00
2023-02-06T01:10:45.059Z,15.30
2023-02-06T01:13:13.775Z,13.50
2023-02-06T01:15:42.681Z,15.40
2023-02-06T01:18:10.592Z,18.70
2023-02-06T01:20:41.380Z,14.20
2023-02-06T01:23:09.274Z,14.30
2023-02-06T01:25:39.194Z,17.20
2023-02-06T01:28:07.675Z,14.70
2023-02-06T01:30:35.664Z,14.70
2023-02-06T01:33:03.597Z,13.60
2023-02-06T01:35:31.383Z,13.70
2023-02-06T01:37:59.266Z,13.90
2023-02-06T01:40:27.114Z,13.00
2023-02-06T01:42:55.706Z,13.20
2023-02-06T01:45:32.556Z,12.50
2023-02-06T01:48:03.590Z,12.50
2023-02-06T01:50:31.801Z,11.50
2023-02-06T01:52:59.658Z,10.70
2023-02-06T01:55:29.203Z,11.30
2023-02-06T01:57:59.604Z,11.60
2023-02-06T02:00:27.644Z,10.40
2023-02-06T02:02:55.643Z,12.30
2023-02-06T02:05:23.529Z,10.30
2023-02-06T02:08:01.100Z,11.90
2023-02-06T02:10:29.867Z,12.80
2023-02-06T02:12:59.927Z,10.60
2023-02-06T02:15:39.189Z,10.60
2023-02-06T02:18:16.166Z,11.50
2023-02-06T02:21:14.749Z,10.50
2023-02-06T02:23:46.918Z,11.40
2023-02-06T02:26:33.793Z,11.40
2023-02-06T02:29:29.744Z,11.00
2023-02-06T02:32:14.137Z,11.60
2023-02-06T02:34:47.751Z,11.20
2023-02-06T02:38:09.728Z,11.80
2023-02-06T02:41:01.708Z,11.30
2023-02-06T02:43:55.393Z,11.20
2023-02-06T02:46:29.333Z,12.00
2023-02-06T02:49:02.166Z,11.40
2023-02-06T02:51:30.212Z,11.60
2023-02-06T02:53:58.246Z,10.20
2023-02-06T02:56:26.803Z,9.60
2023-02-06T02:58:58.408Z,10.80
2023-02-06T03:01:32.119Z,10.20
2023-02-06T03:04:09.379Z,10.00
2023-02-06T03:06:44.606Z,10.10
2023-02-06T03:09:45.807Z,9.80
2023-02-06T03:12:28.477Z,9.50
2023-02-06T03:14:59.927Z,10.40
2023-02-06T03:17:51.581Z,11.10
2023-02-06T03:20:19.440Z,9.70
2023-02-06T03:22:47.797Z,8.90
2023-02-06T03:25:18.783Z,9.70
2023-02-06T03:27:47.259Z,9.60
2023-02-06T03:30:15.137Z,10.40
2023-02-06T03:32:51.556Z,9.10
2023-02-06T03:35:21.202Z,9.60
2023-02-06T03:37:49.233Z,10.10
2023-02-06T03:40:34.170Z,10.20
2023-02-06T03:43:03.892Z,10.40
2023-02-06T03:45:42.157Z,10.80
2023-02-06T03:48:24.611Z,9.90
2023-02-06T03:50:54.298Z,10.60
2023-02-06T03:53:22.542Z,11.80
2023-02-06T03:55:50.762Z,11.50
2023-02-06T03:58:20.190Z,10.90
2023-02-06T04:00:48.386Z,10.70
2023-02-06T04:03:16.931Z,11.00
2023-02-06T04:05:44.870Z,11.30
2023-02-06T04:08:14.592Z,11.70
2023-02-06T04:10:42.553Z,12.50
2023-02-06T04:13:11.031Z,12.40
2023-02-06T04:15:39.064Z,12.10
2023-02-06T04:18:07.025Z,13.40
2023-02-06T04:20:41.010Z,13.90
2023-02-06T04:25:37.096Z,13.50
2023-02-06T04:28:05.640Z,14.40
2023-02-06T04:30:34.234Z,12.90
2023-02-06T04:33:02.267Z,13.70
2023-02-06T04:35:30.153Z,13.40
2023-02-06T04:37:58.106Z,12.90
2023-02-06T04:40:25.911Z,12.40
2023-02-06T04:42:53.706Z,13.30
2023-02-06T04:45:22.326Z,11.50
2023-02-06T04:47:50.348Z,11.80
2023-02-06T04:50:18.409Z,10.90
2023-02-06T04:52:46.625Z,11.10
2023-02-06T04:55:14.463Z,11.20
2023-02-06T04:57:42.386Z,11.70
2023-02-06T05:00:11.193Z,11.70
2023-02-06T05:02:39.827Z,11.40
2023-02-06T05:05:08.650Z,12.10
2023-02-06T05:07:37.233Z,11.70
2023-02-06T05:10:05.201Z,13.00
2023-02-06T05:12:33.244Z,13.60
2023-02-06T05:15:01.562Z,13.50
2023-02-06T05:17:29.901Z,13.10
2023-02-06T05:19:58.571Z,12.80
2023-02-06T05:22:26.760Z,13.00
2023-02-06T05:24:54.558Z,13.40
2023-02-06T05:27:22.348Z,13.30
2023-02-06T05:29:50.623Z,12.10
2023-02-06T05:32:19.318Z,11.50
2023-02-06T05:34:47.118Z,11.80
2023-02-06T05:37:14.914Z,11.40
2023-02-06T05:39:43.136Z,11.90
2023-02-06T05:42:10.896Z,11.90
2023-02-06T05:44:38.964Z,11.60
2023-02-06T05:47:06.918Z,12.70
2023-02-06T05:49:35.161Z,12.10
2023-02-06T05:52:03.003Z,11.70
2023-02-06T05:54:30.963Z,12.30
2023-02-06T05:57:00.306Z,12.60
2023-02-06T05:59:28.123Z,12.90
2023-02-06T06:01:55.945Z,11.70
2023-02-06T06:04:24.121Z,11.90
2023-02-06T06:06:55.398Z,11.90
2023-02-06T06:09:23.790Z,12.40
2023-02-06T06:13:02.371Z,12.70
2023-02-06T06:15:30.433Z,12.20
2023-02-06T06:18:01.375Z,12.20
2023-02-06T06:20:29.653Z,13.30
2023-02-06T06:22:57.655Z,12.00
2023-02-06T06:25:25.486Z,13.10
2023-02-06T06:27:53.602Z,13.60
2023-02-06T06:30:23.374Z,12.40
2023-02-06T06:32:51.845Z,12.80
2023-02-06T06:35:20.262Z,12.40
2023-02-06T06:37:48.104Z,13.20
2023-02-06T06:40:16.306Z,13.50
2023-02-06T06:42:44.540Z,13.50
2023-02-06T06:45:12.533Z,13.10
2023-02-06T06:47:40.802Z,15.10
2023-02-06T06:50:11.644Z,12.40
2023-02-06T06:52:39.420Z,14.20
2023-02-06T06:55:07.926Z,13.70
2023-02-06T06:57:35.768Z,12.80
2023-02-06T07:00:04.460Z,12.80
2023-02-06T07:02:32.740Z,13.80
2023-02-06T07:05:00.672Z,12.80
2023-02-06T07:07:28.833Z,13.10
2023-02-06T07:09:56.991Z,12.30
2023-02-06T07:12:25.016Z,12.90
2023-02-06T07:14:53.788Z,13.20
2023-02-06T07:17:21.658Z,12.90
2023-02-06T07:19:52.423Z,13.30
2023-02-06T07:22:20.469Z,13.20
2023-02-06T07:24:48.512Z,13.90
2023-02-06T07:27:16.623Z,11.90
2023-02-06T07:29:44.504Z,12.90
2023-02-06T07:32:12.417Z,12.60
2023-02-06T07:34:40.836Z,13.20
2023-02-06T07:37:08.660Z,14.60
2023-02-06T07:39:36.478Z,13.00
2023-02-06T12:09:34.971Z,5.60
2023-02-06T12:12:18.125Z,5.90
2023-02-06T12:14:51.883Z,5.20
2023-02-06T12:17:40.073Z,5.30
2023-02-06T12:20:26.461Z,4.70
2023-02-06T12:23:01.285Z,6.00
2023-02-06T12:25:41.621Z,5.70
2023-02-06T12:28:15.430Z,6.30
2023-02-06T12:30:51.418Z,6.30
2023-02-06T12:33:22.506Z,6.20
2023-02-06T12:35:59.452Z,7.40
2023-02-06T12:38:41.994Z,6.80
2023-02-06T12:41:28.810Z,7.20
2023-02-06T12:44:00.895Z,6.00
2023-02-06T12:46:30.237Z,7.40
2023-02-06T12:49:12.356Z,6.20
2023-02-06T12:51:43.332Z,6.60
2023-02-06T12:54:40.852Z,7.10
2023-02-06T12:57:17.349Z,6.90
2023-02-06T13:00:12.806Z,7.60
2023-02-06T13:02:50.072Z,6.10
2023-02-06T13:05:27.036Z,6.80
2023-02-06T13:07:56.951Z,6.60
2023-02-06T13:10:25.492Z,7.60
2023-02-06T13:12:58.563Z,8.00
2023-02-06T13:15:38.883Z,8.00
2023-02-06T13:18:41.857Z,8.40
2023-02-06T13:21:16.320Z,8.40
2023-02-06T13:24:02.754Z,8.60
2023-02-06T13:26:46.323Z,9.90
2023-02-06T13:29:37.626Z,8.30
2023-02-06T13:32:22.653Z,9.10
2023-02-06T13:35:10.126Z,9.00
2023-02-06T13:37:40.754Z,10.30
2023-02-06T13:40:24.048Z,9.50
2023-02-06T13:43:19.738Z,9.40
2023-02-06T13:45:59.665Z,10.20
2023-02-06T13:48:46.808Z,9.50
2023-02-06T13:51:33.803Z,9.10
2023-02-06T13:54:35.826Z,9.30
2023-02-06T13:57:31.638Z,10.20
2023-02-06T14:00:24.323Z,11.50
2023-02-06T14:03:11.202Z,9.60
2023-02-06T14:05:54.996Z,9.30
2023-02-06T14:08:28.865Z,9.00
2023-02-06T14:11:09.708Z,9.70
2023-02-06T14:13:38.176Z,9.30
2023-02-06T14:16:31.517Z,8.30
2023-02-06T14:19:05.021Z,7.80
2023-02-06T14:21:55.889Z,8.20
2023-02-06T14:24:45.788Z,7.40
2023-02-06T14:27:19.733Z,7.40
2023-02-06T14:32:54.346Z,8.20
2023-02-06T14:35:38.210Z,8.00
2023-02-06T14:38:17.925Z,10.30
2023-02-06T14:40:49.868Z,9.80
2023-02-06T14:43:22.060Z,8.90
2023-02-06T14:46:05.689Z,8.90
2023-02-06T14:48:44.850Z,8.90
2023-02-06T14:51:42.034Z,9.00
2023-02-06T14:54:36.581Z,9.40
2023-02-06T14:57:06.591Z,9.00
2023-02-06T14:59:34.616Z,7.90
2023-02-06T15:02:12.559Z,8.60
2023-02-06T15:04:47.409Z,8.30
2023-02-06T15:07:22.608Z,8.70
2023-02-06T15:10:06.934Z,8.60
2023-02-06T15:12:35.419Z,8.20
2023-02-06T15:15:19.818Z,9.40
2023-02-06T15:18:00.894Z,8.60
2023-02-06T15:20:45.199Z,9.00
2023-02-06T15:23:25.106Z,8.10
2023-02-06T15:26:04.178Z,8.60
2023-02-06T15:28:34.286Z,9.60
2023-02-06T15:31:02.690Z,9.30
2023-02-06T15:33:33.125Z,9.30
2023-02-06T15:36:03.261Z,8.90
2023-02-06T15:38:32.267Z,8.30
2023-02-06T15:41:03.729Z,9.00
2023-02-06T15:43:34.302Z,8.10
2023-02-06T18:37:20.517Z,9.80
2023-02-06T18:39:48.871Z,10.40
2023-02-06T18:42:35.222Z,9.30
2023-02-06T18:45:04.224Z,8.50
2023-02-06T18:47:32.273Z,9.40
2023-02-06T18:50:00.392Z,8.00
2023-02-06T18:52:28.796Z,8.40
2023-02-06T18:54:56.790Z,9.30
2023-02-06T18:57:24.760Z,9.40
2023-02-06T18:59:54.983Z,8.70
2023-02-06T19:02:22.890Z,11.50
2023-02-06T19:04:51.153Z,10.90
2023-02-06T19:07:19.188Z,10.80
2023-02-06T19:09:47.052Z,12.30
2023-02-06T19:12:14.832Z,11.80
2023-02-06T19:14:42.694Z,11.60
2023-02-06T19:17:11.689Z,12.60
2023-02-06T19:19:39.621Z,12.20
2023-02-06T19:22:07.859Z,12.50
2023-02-06T19:24:36.250Z,12.20
2023-02-06T19:27:04.226Z,13.10
2023-02-06T19:29:36.091Z,11.30
2023-02-06T19:32:05.906Z,11.50
2023-02-06T19:34:36.564Z,11.90
2023-02-06T19:37:05.009Z,11.70
2023-02-06T19:39:34.425Z,12.30
2023-02-06T19:42:06.964Z,12.10
2023-02-06T19:44:35.512Z,11.50
2023-02-06T19:47:03.453Z,13.30
2023-02-06T19:49:34.748Z,13.50
2023-02-06T19:52:04.512Z,13.70
2023-02-06T19:54:32.721Z,14.10
2023-02-06T19:57:00.724Z,13.40
2023-02-06T19:59:29.172Z,15.10
2023-02-06T20:01:58.749Z,13.70
2023-02-06T20:04:32.225Z,14.50
2023-02-06T20:07:02.219Z,15.00
2023-02-06T20:09:30.759Z,15.50
2023-02-06T20:11:59.015Z,16.00
2023-02-06T20:14:28.028Z,15.60
2023-02-06T20:16:56.052Z,16.20
2023-02-06T20:19:25.552Z,18.30
2023-02-06T20:21:55.287Z,20.10
2023-02-06T20:24:25.198Z,21.30
2023-02-06T20:26:56.739Z,24.50
2023-02-06T20:29:27.681Z,27.70
2023-02-06T20:31:56.928Z,26.90
2023-02-06T20:34:24.856Z,28.00
2023-02-06T20:36:53.385Z,30.20
2023-02-06T20:39:21.582Z,29.10
2023-02-06T20:41:50.784Z,24.50
2023-02-06T20:44:19.019Z,24.00
2023-02-06T20:46:47.362Z,23.70
2023-02-06T20:49:16.965Z,23.90
2023-02-06T20:51:45.214Z,20.70
2023-02-06T20:54:13.047Z,23.30
2023-02-06T20:56:41.036Z,23.70
2023-02-06T20:59:11.084Z,21.40
2023-02-06T21:01:39.146Z,23.50
2023-02-06T21:04:08.430Z,21.50
2023-02-06T21:06:36.875Z,19.70
2023-02-06T21:09:07.131Z,20.90
2023-02-06T21:11:37.009Z,21.40
2023-02-06T21:14:05.611Z,22.20
2023-02-06T21:16:34.210Z,23.60
2023-02-06T21:19:02.181Z,21.40
2023-02-06T21:21:30.225Z,19.50
2023-02-06T21:23:58.109Z,19.50
2023-02-06T21:26:26.139Z,17.60
2023-02-06T21:28:54.113Z,17.50
2023-02-06T21:31:23.781Z,18.90
2023-02-06T21:33:52.253Z,16.20
2023-02-06T21:36:21.284Z,17.40
2023-02-06T21:38:49.346Z,18.00
2023-02-06T21:41:19.287Z,19.40
2023-02-06T21:43:47.108Z,19.30
2023-02-06T21:46:16.277Z,20.20
2023-02-06T21:48:44.268Z,29.40
2023-02-06T21:51:14.001Z,39.20
2023-02-06T21:53:42.862Z,28.70
2023-02-06T21:56:21.561Z,22.50
2023-02-06T21:58:49.605Z,23.70
2023-02-06T22:01:26.368Z,26.50
2023-02-06T22:03:54.661Z,27.00
2023-02-06T22:06:22.675Z,23.40
2023-02-06T22:08:51.991Z,22.00
2023-02-06T22:11:23.921Z,20.70
2023-02-06T22:13:52.524Z,19.00
2023-02-06T22:16:23.838Z,18.50
2023-02-06T22:18:51.796Z,18.30
2023-02-06T22:21:21.198Z,18.80
2023-02-06T22:23:49.707Z,18.60
2023-02-06T22:26:18.508Z,19.90
2023-02-06T22:28:46.523Z,19.50
2023-02-06T22:31:22.101Z,20.90
2023-02-06T22:33:50.403Z,22.60
2023-02-06T22:36:20.306Z,21.20
2023-02-06T22:38:50.460Z,21.90
2023-02-06T22:41:18.454Z,17.90
2023-02-06T22:43:49.178Z,18.10
2023-02-06T22:46:24.531Z,27.10
2023-02-06T22:48:52.406Z,19.50
2023-02-06T22:51:20.264Z,18.40
2023-02-06T22:53:48.194Z,16.80
2023-02-06T22:56:26.732Z,18.10
2023-02-06T22:58:59.618Z,18.20
2023-02-06T23:01:33.227Z,17.90
2023-02-06T23:04:01.604Z,16.20
2023-02-06T23:06:30.376Z,17.00
2023-02-06T23:08:59.301Z,16.70
2023-02-06T23:11:28.299Z,18.70
2023-02-06T23:13:58.939Z,19.10
2023-02-06T23:16:28.779Z,17.20
2023-02-06T23:18:56.935Z,17.10
2023-02-06T23:21:25.429Z,17.50
2023-02-06T23:23:54.938Z,18.70
2023-02-06T23:26:23.128Z,17.20
2023-02-06T23:28:51.302Z,18.70
2023-02-06T23:31:19.319Z,17.30
2023-02-06T23:33:47.166Z,17.60
2023-02-06T23:36:16.282Z,18.20
2023-02-06T23:38:44.521Z,17.90
2023-02-06T23:41:17.274Z,19.70
2023-02-06T23:43:49.120Z,16.80
2023-02-06T23:46:17.335Z,17.80
2023-02-06T23:48:45.866Z,17.10
2023-02-06T23:51:13.740Z,16.10
2023-02-06T23:53:42.216Z,17.30
2023-02-06T23:56:36.458Z,16.60
2023-02-06T23:59:04.563Z,17.00
